• Join FlightAware (Why Join?)
  • Login
  • US Flag 
03:11AM EDT


 

Airport Tracker/Info


-or-


 

Live Flight TrackerFlight Track Log ✈ UCA4838 ✈ 08-May-2013 ✈ KALB - KEWR

Flight Track Log - Related Links

Times and Time Zones

All times are in EDT time to prevent confusion due to time zone crossing. See the UCA4838 flight status page for this flight to view local times or setup timezone preferences in your user account.

Time Position Orientation Groundspeed Altitude Reporting Facility
EDT Latitude Longitude Course Direction KTS MPH feet Rate Location/Type
09:32AM 42.7278 -73.8081 170° South 135 155 1,200  Level Boston Center
09:32AM 42.7153 -73.8050 170° South 136 157 1,800 1,560 Climbing Boston Center
09:33AM 42.6775 -73.8267 203° Southwest 151 174 3,400 1,380 Climbing Boston Center
09:35AM 42.6311 -73.8653 211° Southwest 169 194 5,100 1,440 Climbing Boston Center
09:36AM 42.5828 -73.9008 208° Southwest 169 194 6,800 1,500 Climbing Boston Center
09:37AM 42.5406 -73.9364 212° Southwest 175 201 8,200 1,380 Climbing Boston Center
09:38AM 42.4983 -73.9719 212° Southwest 175 201 9,600 900 Climbing Boston Center
09:39AM 42.4522 -74.0075 210° Southwest 188 216 10,000 180 Climbing Boston Center
09:40AM 42.3953 -74.0508 209° Southwest 224 258 10,000  Level Boston Center
09:41AM 42.3361 -74.1000 212° Southwest 246 283 10,000  Level Boston Center
09:42AM 42.2833 -74.1464 213° Southwest 257 296 10,000  Level Boston Center
09:43AM 42.2181 -74.1978 210° Southwest 257 296 10,000  Level Boston Center
09:44AM 42.1631 -74.2356 207° Southwest 257 296 10,000 -420 Level Boston Center
09:45AM 42.0936 -74.2867 209° Southwest 262 302 9,200 -780 Descending Boston Center
09:46AM 42.0367 -74.3297 209° Southwest 267 307 8,500 -840 Descending Boston Center
09:47AM 41.9711 -74.3781 209° Southwest 261 300 7,600 -780 Descending Boston Center
09:48AM 41.9142 -74.4153 206° Southwest 261 300 7,000 -300 Descending Boston Center
09:49AM 41.8489 -74.4633 209° Southwest 256 295 7,000  Level Boston Center
09:50AM 41.7917 -74.5033 208° Southwest 251 289 7,000  Level Boston Center
09:51AM 41.7244 -74.5344 199° South 241 277 7,000  Level Boston Center
09:52AM 41.6639 -74.5436 186° South 241 277 7,000 -240 Level Boston Center
09:53AM 41.5906 -74.5581 188° South 241 277 6,600 -540 Descending Boston Center
09:54AM 41.5300 -74.5697 188° South 241 277 6,000 -300 Descending Boston Center
09:55AM 41.4567 -74.5839 188° South 241 277 6,000  Level Boston Center
09:57AM 41.3333 -74.6167 191° South 237 273 6,000  Level New York TRACON
09:58AM 41.3000 -74.5500 124° Southeast 224 258 6,000  Level New York TRACON
09:59AM 41.2500 -74.5000 143° Southeast 227 261 6,000  Level New York TRACON
10:00AM 41.2000 -74.4500 143° Southeast 229 264 6,000  Level New York TRACON
10:01AM 41.1333 -74.4667 191° South 236 272 6,000  Level New York TRACON
10:02AM 41.0667 -74.4833 191° South 237 273 6,000 -420 Level New York TRACON
10:03AM 41.0000 -74.5167 201° Southwest 249 287 5,200 -540 Descending New York TRACON
10:04AM 40.9500 -74.5667 217° Southwest 249 287 5,000 -120 Descending New York TRACON
10:05AM 40.8833 -74.6000 201° Southwest 247 284 5,000  Level New York TRACON
10:06AM 40.8167 -74.6000 180° South 228 262 5,000  Level New York TRACON
10:07AM 40.7667 -74.6000 180° South 223 257 5,000  Level New York TRACON
10:08AM 40.7000 -74.5833 169° South 222 255 5,000  Level New York TRACON
10:09AM 40.6500 -74.5500 153° Southeast 215 247 5,000  Level New York TRACON
10:09AM 40.6167 -74.5167 143° Southeast 212 244 5,000 -240 Level New York TRACON
10:10AM 40.5667 -74.4667 143° Southeast 216 249 4,600 -900 Descending New York TRACON
10:11AM 40.5333 -74.4000 123° Southeast 213 245 3,200 -900 Descending New York TRACON
10:12AM 40.5167 -74.3333 108° East 186 214 2,800 -660 Descending New York TRACON
10:13AM 40.5333 -74.2833 66° East 198 228 2,000 -480 Descending New York TRACON
10:14AM 40.5667 -74.2500 37° Northeast 170 196 2,000 -300 Level New York TRACON
10:15AM 40.6167 -74.2167 27° Northeast 155 178 1,400 -660 Descending New York TRACON
10:16AM 40.6500 -74.2000 21° North 129 148 700 -720 Descending New York TRACON